sensor_id;sensor_type;location;lat;lon;timestamp;P1;durP1;ratioP1;P2;durP2;ratioP2
31298;SDS011;17927;52.350;13.402;2023-02-19T00:04:17;2.22;;;2.13;;
31298;SDS011;17927;52.350;13.402;2023-02-19T00:06:44;4.03;;;2.28;;
31298;SDS011;17927;52.350;13.402;2023-02-19T00:09:11;2.15;;;2.05;;
31298;SDS011;17927;52.350;13.402;2023-02-19T00:11:38;2.20;;;2.10;;
31298;SDS011;17927;52.350;13.402;2023-02-19T00:14:04;3.05;;;2.10;;
31298;SDS011;17927;52.350;13.402;2023-02-19T00:16:31;1.98;;;1.88;;
31298;SDS011;17927;52.350;13.402;2023-02-19T00:18:59;2.30;;;2.17;;
31298;SDS011;17927;52.350;13.402;2023-02-19T00:21:26;2.20;;;2.10;;
31298;SDS011;17927;52.350;13.402;2023-02-19T00:23:55;2.40;;;2.28;;
31298;SDS011;17927;52.350;13.402;2023-02-19T00:26:22;3.13;;;2.88;;
31298;SDS011;17927;52.350;13.402;2023-02-19T00:28:49;2.58;;;2.38;;
31298;SDS011;17927;52.350;13.402;2023-02-19T00:31:16;2.72;;;2.53;;
31298;SDS011;17927;52.350;13.402;2023-02-19T00:33:45;3.05;;;2.75;;
31298;SDS011;17927;52.350;13.402;2023-02-19T00:36:11;2.88;;;2.67;;
31298;SDS011;17927;52.350;13.402;2023-02-19T00:38:38;3.10;;;2.80;;
31298;SDS011;17927;52.350;13.402;2023-02-19T00:41:04;3.00;;;2.80;;
31298;SDS011;17927;52.350;13.402;2023-02-19T00:43:49;3.03;;;2.83;;
31298;SDS011;17927;52.350;13.402;2023-02-19T00:46:21;2.85;;;2.65;;
31298;SDS011;17927;52.350;13.402;2023-02-19T00:48:48;2.90;;;2.70;;
31298;SDS011;17927;52.350;13.402;2023-02-19T00:51:13;3.58;;;3.33;;
31298;SDS011;17927;52.350;13.402;2023-02-19T00:53:39;3.28;;;3.08;;
31298;SDS011;17927;52.350;13.402;2023-02-19T00:56:05;4.07;;;3.67;;
31298;SDS011;17927;52.350;13.402;2023-02-19T00:58:30;3.00;;;2.80;;
31298;SDS011;17927;52.350;13.402;2023-02-19T01:00:56;3.95;;;2.85;;
31298;SDS011;17927;52.350;13.402;2023-02-19T01:03:21;3.28;;;3.03;;
31298;SDS011;17927;52.350;13.402;2023-02-19T01:05:47;3.10;;;2.90;;
31298;SDS011;17927;52.350;13.402;2023-02-19T01:08:13;4.15;;;3.22;;
31298;SDS011;17927;52.350;13.402;2023-02-19T01:10:38;6.07;;;3.55;;
31298;SDS011;17927;52.350;13.402;2023-02-19T01:13:04;2.95;;;2.75;;
31298;SDS011;17927;52.350;13.402;2023-02-19T01:15:31;3.30;;;3.00;;
31298;SDS011;17927;52.350;13.402;2023-02-19T01:17:56;5.72;;;3.28;;
31298;SDS011;17927;52.350;13.402;2023-02-19T01:20:22;3.72;;;3.15;;
31298;SDS011;17927;52.350;13.402;2023-02-19T01:22:47;4.75;;;3.17;;
31298;SDS011;17927;52.350;13.402;2023-02-19T01:25:12;3.67;;;3.38;;
31298;SDS011;17927;52.350;13.402;2023-02-19T01:27:37;3.20;;;2.92;;
31298;SDS011;17927;52.350;13.402;2023-02-19T01:30:03;3.33;;;3.00;;
31298;SDS011;17927;52.350;13.402;2023-02-19T01:32:28;3.67;;;3.38;;
31298;SDS011;17927;52.350;13.402;2023-02-19T01:34:53;3.13;;;2.92;;
31298;SDS011;17927;52.350;13.402;2023-02-19T01:37:19;3.90;;;3.13;;
31298;SDS011;17927;52.350;13.402;2023-02-19T01:39:44;3.40;;;3.20;;
31298;SDS011;17927;52.350;13.402;2023-02-19T01:42:11;4.63;;;3.25;;
31298;SDS011;17927;52.350;13.402;2023-02-19T01:47:04;4.40;;;3.30;;
31298;SDS011;17927;52.350;13.402;2023-02-19T01:49:31;3.92;;;3.08;;
31298;SDS011;17927;52.350;13.402;2023-02-19T01:52:01;3.35;;;3.05;;
31298;SDS011;17927;52.350;13.402;2023-02-19T01:54:36;2.80;;;2.60;;
31298;SDS011;17927;52.350;13.402;2023-02-19T01:57:06;3.40;;;3.13;;
31298;SDS011;17927;52.350;13.402;2023-02-19T01:59:35;3.15;;;2.95;;
31298;SDS011;17927;52.350;13.402;2023-02-19T02:02:02;4.50;;;3.17;;
31298;SDS011;17927;52.350;13.402;2023-02-19T02:04:28;3.80;;;3.47;;
31298;SDS011;17927;52.350;13.402;2023-02-19T02:06:55;3.33;;;2.75;;
31298;SDS011;17927;52.350;13.402;2023-02-19T02:09:24;3.70;;;2.67;;
31298;SDS011;17927;52.350;13.402;2023-02-19T02:12:10;3.10;;;2.80;;
31298;SDS011;17927;52.350;13.402;2023-02-19T02:14:37;3.40;;;3.20;;
31298;SDS011;17927;52.350;13.402;2023-02-19T02:31:20;2.97;;;2.78;;
31298;SDS011;17927;52.350;13.402;2023-02-19T02:37:02;6.22;;;3.10;;
31298;SDS011;17927;52.350;13.402;2023-02-19T02:39:29;4.47;;;3.10;;
31298;SDS011;17927;52.350;13.402;2023-02-19T02:41:57;3.15;;;2.90;;
31298;SDS011;17927;52.350;13.402;2023-02-19T02:44:42;5.47;;;3.20;;
31298;SDS011;17927;52.350;13.402;2023-02-19T02:47:32;3.55;;;3.10;;
31298;SDS011;17927;52.350;13.402;2023-02-19T02:50:30;3.17;;;2.88;;
31298;SDS011;17927;52.350;13.402;2023-02-19T02:52:58;2.50;;;2.33;;
31298;SDS011;17927;52.350;13.402;2023-02-19T02:55:46;2.83;;;2.67;;
31298;SDS011;17927;52.350;13.402;2023-02-19T02:58:16;3.75;;;3.25;;
31298;SDS011;17927;52.350;13.402;2023-02-19T03:00:42;4.25;;;3.17;;
31298;SDS011;17927;52.350;13.402;2023-02-19T03:03:31;3.80;;;3.00;;
31298;SDS011;17927;52.350;13.402;2023-02-19T03:05:58;7.00;;;2.92;;
31298;SDS011;17927;52.350;13.402;2023-02-19T03:08:28;4.60;;;3.53;;
31298;SDS011;17927;52.350;13.402;2023-02-19T03:11:05;5.60;;;3.42;;
31298;SDS011;17927;52.350;13.402;2023-02-19T03:13:52;5.88;;;3.38;;
31298;SDS011;17927;52.350;13.402;2023-02-19T03:16:41;3.33;;;2.92;;
31298;SDS011;17927;52.350;13.402;2023-02-19T03:19:28;4.40;;;3.10;;
31298;SDS011;17927;52.350;13.402;2023-02-19T03:22:33;4.07;;;2.60;;
31298;SDS011;17927;52.350;13.402;2023-02-19T03:25:08;3.95;;;2.90;;
31298;SDS011;17927;52.350;13.402;2023-02-19T03:27:56;8.05;;;2.35;;
31298;SDS011;17927;52.350;13.402;2023-02-19T03:30:24;4.15;;;2.80;;
31298;SDS011;17927;52.350;13.402;2023-02-19T03:33:05;7.30;;;2.67;;
31298;SDS011;17927;52.350;13.402;2023-02-19T03:35:35;3.42;;;2.45;;
31298;SDS011;17927;52.350;13.402;2023-02-19T03:38:07;3.88;;;2.67;;
31298;SDS011;17927;52.350;13.402;2023-02-19T03:40:40;3.83;;;3.40;;
31298;SDS011;17927;52.350;13.402;2023-02-19T03:43:30;4.20;;;2.45;;
31298;SDS011;17927;52.350;13.402;2023-02-19T03:46:05;3.50;;;2.15;;
31298;SDS011;17927;52.350;13.402;2023-02-19T03:48:36;6.35;;;2.22;;
31298;SDS011;17927;52.350;13.402;2023-02-19T03:53:57;6.68;;;1.50;;
31298;SDS011;17927;52.350;13.402;2023-02-19T03:56:38;5.40;;;1.92;;
31298;SDS011;17927;52.350;13.402;2023-02-19T03:59:17;4.50;;;2.35;;
31298;SDS011;17927;52.350;13.402;2023-02-19T04:01:52;10.43;;;1.98;;
31298;SDS011;17927;52.350;13.402;2023-02-19T04:04:24;4.50;;;1.90;;
31298;SDS011;17927;52.350;13.402;2023-02-19T04:07:02;1.83;;;1.67;;
31298;SDS011;17927;52.350;13.402;2023-02-19T04:09:33;9.13;;;2.67;;
31298;SDS011;17927;52.350;13.402;2023-02-19T04:12:02;6.35;;;1.92;;
31298;SDS011;17927;52.350;13.402;2023-02-19T04:14:33;12.70;;;2.25;;
31298;SDS011;17927;52.350;13.402;2023-02-19T04:17:04;8.75;;;4.75;;
31298;SDS011;17927;52.350;13.402;2023-02-19T04:19:34;14.00;;;5.30;;
31298;SDS011;17927;52.350;13.402;2023-02-19T04:22:03;7.38;;;3.15;;
31298;SDS011;17927;52.350;13.402;2023-02-19T04:24:31;4.07;;;2.10;;
31298;SDS011;17927;52.350;13.402;2023-02-19T04:27:00;5.93;;;1.48;;
31298;SDS011;17927;52.350;13.402;2023-02-19T04:29:27;3.28;;;1.13;;
31298;SDS011;17927;52.350;13.402;2023-02-19T04:31:52;5.90;;;1.40;;
31298;SDS011;17927;52.350;13.402;2023-02-19T04:34:17;4.93;;;1.00;;
31298;SDS011;17927;52.350;13.402;2023-02-19T04:36:43;3.95;;;1.48;;
31298;SDS011;17927;52.350;13.402;2023-02-19T04:39:08;3.85;;;1.00;;
31298;SDS011;17927;52.350;13.402;2023-02-19T04:41:34;4.40;;;1.15;;
31298;SDS011;17927;52.350;13.402;2023-02-19T04:43:59;3.70;;;1.27;;
31298;SDS011;17927;52.350;13.402;2023-02-19T04:46:24;6.18;;;1.10;;
31298;SDS011;17927;52.350;13.402;2023-02-19T04:48:49;4.75;;;0.90;;
31298;SDS011;17927;52.350;13.402;2023-02-19T04:51:15;4.32;;;1.30;;
31298;SDS011;17927;52.350;13.402;2023-02-19T04:53:40;5.85;;;1.30;;
31298;SDS011;17927;52.350;13.402;2023-02-19T04:56:11;3.28;;;1.52;;
31298;SDS011;17927;52.350;13.402;2023-02-19T04:58:38;2.22;;;1.10;;
31298;SDS011;17927;52.350;13.402;2023-02-19T05:01:04;3.92;;;1.27;;
31298;SDS011;17927;52.350;13.402;2023-02-19T05:03:29;3.95;;;1.40;;
31298;SDS011;17927;52.350;13.402;2023-02-19T05:05:55;4.55;;;1.42;;
31298;SDS011;17927;52.350;13.402;2023-02-19T05:08:20;2.70;;;1.30;;
31298;SDS011;17927;52.350;13.402;2023-02-19T05:10:45;2.25;;;1.38;;
31298;SDS011;17927;52.350;13.402;2023-02-19T05:13:11;1.52;;;1.00;;
31298;SDS011;17927;52.350;13.402;2023-02-19T05:15:36;3.28;;;1.50;;
31298;SDS011;17927;52.350;13.402;2023-02-19T05:18:01;4.50;;;1.92;;
31298;SDS011;17927;52.350;13.402;2023-02-19T05:20:27;4.85;;;1.50;;
31298;SDS011;17927;52.350;13.402;2023-02-19T05:22:52;4.90;;;2.30;;
31298;SDS011;17927;52.350;13.402;2023-02-19T05:25:17;5.80;;;2.10;;
31298;SDS011;17927;52.350;13.402;2023-02-19T05:27:43;2.10;;;1.50;;
31298;SDS011;17927;52.350;13.402;2023-02-19T05:30:08;5.10;;;1.40;;
31298;SDS011;17927;52.350;13.402;2023-02-19T05:32:34;5.20;;;1.45;;
31298;SDS011;17927;52.350;13.402;2023-02-19T05:34:59;4.45;;;1.58;;
31298;SDS011;17927;52.350;13.402;2023-02-19T05:37:25;4.75;;;1.63;;
31298;SDS011;17927;52.350;13.402;2023-02-19T05:39:51;3.15;;;1.55;;
31298;SDS011;17927;52.350;13.402;2023-02-19T05:42:16;3.80;;;1.52;;
31298;SDS011;17927;52.350;13.402;2023-02-19T05:44:41;2.97;;;1.40;;
31298;SDS011;17927;52.350;13.402;2023-02-19T05:47:07;5.75;;;1.80;;
31298;SDS011;17927;52.350;13.402;2023-02-19T05:49:32;3.53;;;1.90;;
31298;SDS011;17927;52.350;13.402;2023-02-19T05:51:57;4.45;;;1.70;;
31298;SDS011;17927;52.350;13.402;2023-02-19T05:54:23;3.05;;;1.65;;
31298;SDS011;17927;52.350;13.402;2023-02-19T05:56:48;4.75;;;2.40;;
31298;SDS011;17927;52.350;13.402;2023-02-19T05:59:14;3.17;;;2.17;;
31298;SDS011;17927;52.350;13.402;2023-02-19T06:01:42;3.15;;;1.75;;
31298;SDS011;17927;52.350;13.402;2023-02-19T06:04:07;1.98;;;1.58;;
31298;SDS011;17927;52.350;13.402;2023-02-19T06:06:34;4.22;;;1.67;;
31298;SDS011;17927;52.350;13.402;2023-02-19T06:08:59;7.50;;;2.03;;
31298;SDS011;17927;52.350;13.402;2023-02-19T06:11:24;2.25;;;1.95;;
31298;SDS011;17927;52.350;13.402;2023-02-19T06:13:50;3.53;;;2.00;;
31298;SDS011;17927;52.350;13.402;2023-02-19T06:16:15;2.20;;;1.80;;
31298;SDS011;17927;52.350;13.402;2023-02-19T06:18:41;3.30;;;2.00;;
31298;SDS011;17927;52.350;13.402;2023-02-19T06:21:08;3.33;;;1.80;;
31298;SDS011;17927;52.350;13.402;2023-02-19T06:23:34;4.70;;;2.10;;
31298;SDS011;17927;52.350;13.402;2023-02-19T06:30:59;2.03;;;1.60;;
31298;SDS011;17927;52.350;13.402;2023-02-19T06:33:25;3.47;;;1.83;;
31298;SDS011;17927;52.350;13.402;2023-02-19T06:35:51;2.83;;;1.50;;
31298;SDS011;17927;52.350;13.402;2023-02-19T06:38:17;3.38;;;1.67;;
31298;SDS011;17927;52.350;13.402;2023-02-19T06:40:42;5.05;;;1.77;;
31298;SDS011;17927;52.350;13.402;2023-02-19T06:43:07;2.95;;;1.60;;
31298;SDS011;17927;52.350;13.402;2023-02-19T06:45:32;4.00;;;1.67;;
31298;SDS011;17927;52.350;13.402;2023-02-19T06:47:58;3.83;;;1.85;;
31298;SDS011;17927;52.350;13.402;2023-02-19T06:50:23;3.55;;;1.38;;
31298;SDS011;17927;52.350;13.402;2023-02-19T06:52:48;4.28;;;1.30;;
31298;SDS011;17927;52.350;13.402;2023-02-19T06:55:14;6.60;;;1.45;;
31298;SDS011;17927;52.350;13.402;2023-02-19T06:57:39;5.32;;;1.05;;
31298;SDS011;17927;52.350;13.402;2023-02-19T07:00:04;5.47;;;1.73;;
31298;SDS011;17927;52.350;13.402;2023-02-19T07:02:30;4.57;;;1.95;;
31298;SDS011;17927;52.350;13.402;2023-02-19T07:04:55;7.68;;;1.75;;
31298;SDS011;17927;52.350;13.402;2023-02-19T07:07:20;2.80;;;1.85;;
31298;SDS011;17927;52.350;13.402;2023-02-19T07:09:46;5.47;;;1.70;;
31298;SDS011;17927;52.350;13.402;2023-02-19T07:12:11;6.15;;;1.85;;
31298;SDS011;17927;52.350;13.402;2023-02-19T07:14:36;4.13;;;1.50;;
31298;SDS011;17927;52.350;13.402;2023-02-19T07:17:02;7.53;;;1.92;;
31298;SDS011;17927;52.350;13.402;2023-02-19T07:19:27;2.78;;;1.35;;
31298;SDS011;17927;52.350;13.402;2023-02-19T07:21:52;3.28;;;1.58;;
31298;SDS011;17927;52.350;13.402;2023-02-19T07:24:17;4.80;;;1.45;;
31298;SDS011;17927;52.350;13.402;2023-02-19T07:26:45;1.60;;;1.25;;
31298;SDS011;17927;52.350;13.402;2023-02-19T07:29:10;2.50;;;1.60;;
31298;SDS011;17927;52.350;13.402;2023-02-19T07:31:35;4.05;;;2.05;;
31298;SDS011;17927;52.350;13.402;2023-02-19T07:34:01;5.78;;;1.92;;
31298;SDS011;17927;52.350;13.402;2023-02-19T07:36:26;4.32;;;1.70;;
31298;SDS011;17927;52.350;13.402;2023-02-19T07:38:52;5.28;;;2.15;;
31298;SDS011;17927;52.350;13.402;2023-02-19T07:41:19;3.72;;;1.80;;
31298;SDS011;17927;52.350;13.402;2023-02-19T07:43:44;2.90;;;1.65;;
31298;SDS011;17927;52.350;13.402;2023-02-19T07:46:10;4.55;;;1.70;;
31298;SDS011;17927;52.350;13.402;2023-02-19T07:48:38;3.00;;;2.05;;
31298;SDS011;17927;52.350;13.402;2023-02-19T07:51:05;2.40;;;1.73;;
31298;SDS011;17927;52.350;13.402;2023-02-19T07:53:32;3.25;;;1.73;;
31298;SDS011;17927;52.350;13.402;2023-02-19T07:56:03;2.30;;;1.45;;
31298;SDS011;17927;52.350;13.402;2023-02-19T07:58:30;4.20;;;1.90;;
31298;SDS011;17927;52.350;13.402;2023-02-19T08:00:56;3.15;;;2.30;;
31298;SDS011;17927;52.350;13.402;2023-02-19T08:03:22;2.17;;;1.90;;
31298;SDS011;17927;52.350;13.402;2023-02-19T08:05:47;2.85;;;1.83;;
31298;SDS011;17927;52.350;13.402;2023-02-19T08:08:15;4.20;;;1.48;;
31298;SDS011;17927;52.350;13.402;2023-02-19T08:10:41;4.60;;;1.77;;
31298;SDS011;17927;52.350;13.402;2023-02-19T08:13:26;3.13;;;1.60;;
31298;SDS011;17927;52.350;13.402;2023-02-19T08:15:54;1.90;;;1.55;;
31298;SDS011;17927;52.350;13.402;2023-02-19T08:18:24;3.85;;;1.55;;
31298;SDS011;17927;52.350;13.402;2023-02-19T08:20:51;3.95;;;1.58;;
31298;SDS011;17927;52.350;13.402;2023-02-19T08:23:18;9.57;;;4.88;;
31298;SDS011;17927;52.350;13.402;2023-02-19T08:25:44;9.73;;;4.65;;
31298;SDS011;17927;52.350;13.402;2023-02-19T08:28:10;7.43;;;3.58;;
31298;SDS011;17927;52.350;13.402;2023-02-19T08:30:36;5.00;;;3.08;;
31298;SDS011;17927;52.350;13.402;2023-02-19T08:33:02;3.63;;;2.15;;
31298;SDS011;17927;52.350;13.402;2023-02-19T08:35:29;3.38;;;1.40;;
31298;SDS011;17927;52.350;13.402;2023-02-19T08:37:54;3.70;;;1.67;;
31298;SDS011;17927;52.350;13.402;2023-02-19T08:40:20;5.30;;;2.08;;
31298;SDS011;17927;52.350;13.402;2023-02-19T08:42:46;3.53;;;1.58;;
31298;SDS011;17927;52.350;13.402;2023-02-19T08:45:11;4.78;;;1.55;;
31298;SDS011;17927;52.350;13.402;2023-02-19T08:47:37;2.28;;;1.52;;
31298;SDS011;17927;52.350;13.402;2023-02-19T08:50:04;2.20;;;1.30;;
31298;SDS011;17927;52.350;13.402;2023-02-19T08:52:30;5.13;;;1.52;;
31298;SDS011;17927;52.350;13.402;2023-02-19T08:54:56;2.42;;;1.05;;
31298;SDS011;17927;52.350;13.402;2023-02-19T08:57:22;4.50;;;1.73;;
31298;SDS011;17927;52.350;13.402;2023-02-19T08:59:47;10.35;;;1.30;;
31298;SDS011;17927;52.350;13.402;2023-02-19T09:02:12;6.13;;;1.45;;
31298;SDS011;17927;52.350;13.402;2023-02-19T09:04:38;3.75;;;1.40;;
31298;SDS011;17927;52.350;13.402;2023-02-19T09:07:03;1.42;;;1.20;;
31298;SDS011;17927;52.350;13.402;2023-02-19T09:09:37;3.15;;;1.38;;
31298;SDS011;17927;52.350;13.402;2023-02-19T09:12:04;4.85;;;1.50;;
31298;SDS011;17927;52.350;13.402;2023-02-19T09:14:34;4.30;;;1.10;;
31298;SDS011;17927;52.350;13.402;2023-02-19T09:17:00;4.15;;;1.60;;
31298;SDS011;17927;52.350;13.402;2023-02-19T09:19:26;3.90;;;1.35;;
31298;SDS011;17927;52.350;13.402;2023-02-19T09:21:52;7.72;;;2.13;;
31298;SDS011;17927;52.350;13.402;2023-02-19T09:24:18;1.98;;;1.15;;
31298;SDS011;17927;52.350;13.402;2023-02-19T09:26:43;6.85;;;1.48;;
31298;SDS011;17927;52.350;13.402;2023-02-19T09:29:08;6.50;;;2.00;;
31298;SDS011;17927;52.350;13.402;2023-02-19T09:31:33;4.38;;;1.70;;
31298;SDS011;17927;52.350;13.402;2023-02-19T09:33:59;5.95;;;1.25;;
31298;SDS011;17927;52.350;13.402;2023-02-19T09:36:24;3.15;;;1.13;;
31298;SDS011;17927;52.350;13.402;2023-02-19T09:38:49;4.97;;;1.55;;
31298;SDS011;17927;52.350;13.402;2023-02-19T09:41:23;5.40;;;1.45;;
31298;SDS011;17927;52.350;13.402;2023-02-19T09:43:54;4.68;;;1.27;;
31298;SDS011;17927;52.350;13.402;2023-02-19T09:46:33;4.30;;;1.50;;
31298;SDS011;17927;52.350;13.402;2023-02-19T09:49:12;6.30;;;1.17;;
31298;SDS011;17927;52.350;13.402;2023-02-19T09:51:58;2.83;;;1.02;;
31298;SDS011;17927;52.350;13.402;2023-02-19T09:54:30;3.03;;;1.00;;
31298;SDS011;17927;52.350;13.402;2023-02-19T09:56:58;12.70;;;6.55;;
31298;SDS011;17927;52.350;13.402;2023-02-19T09:59:26;9.45;;;2.72;;
31298;SDS011;17927;52.350;13.402;2023-02-19T10:02:01;12.27;;;2.58;;
31298;SDS011;17927;52.350;13.402;2023-02-19T10:04:33;7.93;;;2.28;;
31298;SDS011;17927;52.350;13.402;2023-02-19T10:06:59;6.88;;;2.80;;
31298;SDS011;17927;52.350;13.402;2023-02-19T10:09:28;3.60;;;1.70;;
31298;SDS011;17927;52.350;13.402;2023-02-19T10:11:54;6.18;;;3.25;;
31298;SDS011;17927;52.350;13.402;2023-02-19T10:14:25;4.38;;;1.45;;
31298;SDS011;17927;52.350;13.402;2023-02-19T10:16:58;4.13;;;1.30;;
31298;SDS011;17927;52.350;13.402;2023-02-19T10:19:27;5.28;;;1.60;;
31298;SDS011;17927;52.350;13.402;2023-02-19T10:21:52;4.03;;;1.00;;
31298;SDS011;17927;52.350;13.402;2023-02-19T10:24:23;5.00;;;1.08;;
31298;SDS011;17927;52.350;13.402;2023-02-19T10:26:50;3.15;;;1.00;;
31298;SDS011;17927;52.350;13.402;2023-02-19T10:29:16;7.28;;;1.48;;
31298;SDS011;17927;52.350;13.402;2023-02-19T10:31:41;2.40;;;1.10;;
31298;SDS011;17927;52.350;13.402;2023-02-19T10:34:07;5.50;;;1.13;;
31298;SDS011;17927;52.350;13.402;2023-02-19T10:36:42;6.30;;;1.10;;
31298;SDS011;17927;52.350;13.402;2023-02-19T10:41:47;3.13;;;0.85;;
31298;SDS011;17927;52.350;13.402;2023-02-19T10:44:20;4.38;;;1.15;;
31298;SDS011;17927;52.350;13.402;2023-02-19T10:46:48;2.35;;;0.85;;
31298;SDS011;17927;52.350;13.402;2023-02-19T10:49:22;4.82;;;1.00;;
31298;SDS011;17927;52.350;13.402;2023-02-19T10:51:53;6.78;;;1.05;;
31298;SDS011;17927;52.350;13.402;2023-02-19T10:59:58;3.05;;;0.85;;
31298;SDS011;17927;52.350;13.402;2023-02-19T11:02:26;3.35;;;1.02;;
31298;SDS011;17927;52.350;13.402;2023-02-19T11:07:34;9.40;;;2.70;;
31298;SDS011;17927;52.350;13.402;2023-02-19T11:10:02;3.35;;;0.88;;
31298;SDS011;17927;52.350;13.402;2023-02-19T11:12:30;8.15;;;1.13;;
31298;SDS011;17927;52.350;13.402;2023-02-19T11:14:59;1.80;;;0.77;;
31298;SDS011;17927;52.350;13.402;2023-02-19T11:17:43;2.67;;;0.80;;
31298;SDS011;17927;52.350;13.402;2023-02-19T11:20:13;3.28;;;0.77;;
31298;SDS011;17927;52.350;13.402;2023-02-19T11:22:41;3.58;;;0.77;;
31298;SDS011;17927;52.350;13.402;2023-02-19T11:27:56;4.67;;;1.30;;
31298;SDS011;17927;52.350;13.402;2023-02-19T11:30:52;6.95;;;1.17;;
31298;SDS011;17927;52.350;13.402;2023-02-19T11:35:46;6.07;;;0.98;;
31298;SDS011;17927;52.350;13.402;2023-02-19T11:38:14;3.55;;;0.90;;
31298;SDS011;17927;52.350;13.402;2023-02-19T11:40:52;2.05;;;0.70;;
31298;SDS011;17927;52.350;13.402;2023-02-19T11:46:40;3.30;;;0.70;;
31298;SDS011;17927;52.350;13.402;2023-02-19T11:49:25;3.10;;;0.88;;
31298;SDS011;17927;52.350;13.402;2023-02-19T11:52:11;6.28;;;1.25;;
31298;SDS011;17927;52.350;13.402;2023-02-19T11:54:49;3.35;;;0.70;;
31298;SDS011;17927;52.350;13.402;2023-02-19T11:57:29;5.07;;;1.20;;
31298;SDS011;17927;52.350;13.402;2023-02-19T12:08:20;2.20;;;0.88;;
31298;SDS011;17927;52.350;13.402;2023-02-19T12:16:35;2.90;;;0.80;;
31298;SDS011;17927;52.350;13.402;2023-02-19T12:25:01;2.42;;;0.70;;
31298;SDS011;17927;52.350;13.402;2023-02-19T12:36:19;4.30;;;1.08;;
31298;SDS011;17927;52.350;13.402;2023-02-19T12:38:57;3.63;;;0.98;;
31298;SDS011;17927;52.350;13.402;2023-02-19T12:41:28;7.05;;;0.80;;
31298;SDS011;17927;52.350;13.402;2023-02-19T12:44:21;1.10;;;0.80;;
31298;SDS011;17927;52.350;13.402;2023-02-19T12:46:58;3.33;;;0.93;;
31298;SDS011;17927;52.350;13.402;2023-02-19T12:49:29;1.05;;;0.70;;
31298;SDS011;17927;52.350;13.402;2023-02-19T12:51:58;3.05;;;1.05;;
31298;SDS011;17927;52.350;13.402;2023-02-19T12:54:40;1.55;;;0.70;;
31298;SDS011;17927;52.350;13.402;2023-02-19T12:57:21;3.88;;;1.20;;
31298;SDS011;17927;52.350;13.402;2023-02-19T12:59:53;3.42;;;0.90;;
31298;SDS011;17927;52.350;13.402;2023-02-19T13:02:29;2.65;;;1.00;;
31298;SDS011;17927;52.350;13.402;2023-02-19T13:05:01;3.33;;;1.08;;
31298;SDS011;17927;52.350;13.402;2023-02-19T13:07:35;7.45;;;1.20;;
31298;SDS011;17927;52.350;13.402;2023-02-19T13:10:25;2.85;;;1.15;;
31298;SDS011;17927;52.350;13.402;2023-02-19T13:12:57;1.05;;;0.80;;
31298;SDS011;17927;52.350;13.402;2023-02-19T13:18:02;1.55;;;0.90;;
31298;SDS011;17927;52.350;13.402;2023-02-19T13:20:35;3.15;;;1.08;;
31298;SDS011;17927;52.350;13.402;2023-02-19T13:23:20;3.00;;;0.93;;
31298;SDS011;17927;52.350;13.402;2023-02-19T13:29:23;3.95;;;1.10;;
31298;SDS011;17927;52.350;13.402;2023-02-19T13:38:01;4.18;;;0.88;;
31298;SDS011;17927;52.350;13.402;2023-02-19T13:40:32;2.42;;;1.02;;
31298;SDS011;17927;52.350;13.402;2023-02-19T13:43:04;4.85;;;0.80;;
31298;SDS011;17927;52.350;13.402;2023-02-19T13:45:41;2.50;;;0.88;;
31298;SDS011;17927;52.350;13.402;2023-02-19T13:48:14;2.33;;;0.88;;
31298;SDS011;17927;52.350;13.402;2023-02-19T13:58:56;3.38;;;0.85;;
31298;SDS011;17927;52.350;13.402;2023-02-19T14:04:19;2.58;;;0.85;;
31298;SDS011;17927;52.350;13.402;2023-02-19T14:09:48;2.17;;;1.20;;
31298;SDS011;17927;52.350;13.402;2023-02-19T14:20:00;1.77;;;0.88;;
31298;SDS011;17927;52.350;13.402;2023-02-19T14:27:54;4.10;;;3.45;;
31298;SDS011;17927;52.350;13.402;2023-02-19T14:30:28;7.95;;;4.88;;
31298;SDS011;17927;52.350;13.402;2023-02-19T14:32:55;10.98;;;5.85;;
31298;SDS011;17927;52.350;13.402;2023-02-19T14:35:26;5.38;;;2.15;;
31298;SDS011;17927;52.350;13.402;2023-02-19T14:38:00;2.08;;;1.48;;
31298;SDS011;17927;52.350;13.402;2023-02-19T14:40:28;4.32;;;0.70;;
31298;SDS011;17927;52.350;13.402;2023-02-19T14:42:58;2.42;;;0.60;;
31298;SDS011;17927;52.350;13.402;2023-02-19T14:45:24;7.63;;;1.60;;
31298;SDS011;17927;52.350;13.402;2023-02-19T14:47:53;3.78;;;0.60;;
31298;SDS011;17927;52.350;13.402;2023-02-19T14:50:26;3.05;;;0.80;;
31298;SDS011;17927;52.350;13.402;2023-02-19T14:52:55;3.60;;;0.90;;
31298;SDS011;17927;52.350;13.402;2023-02-19T14:55:26;4.83;;;0.97;;
31298;SDS011;17927;52.350;13.402;2023-02-19T14:57:56;1.13;;;1.05;;
31298;SDS011;17927;52.350;13.402;2023-02-19T15:02:51;3.13;;;0.50;;
31298;SDS011;17927;52.350;13.402;2023-02-19T15:05:23;3.30;;;0.70;;
31298;SDS011;17927;52.350;13.402;2023-02-19T15:07:54;1.45;;;0.70;;
31298;SDS011;17927;52.350;13.402;2023-02-19T15:10:22;4.15;;;0.98;;
31298;SDS011;17927;52.350;13.402;2023-02-19T15:12:51;2.58;;;0.73;;
31298;SDS011;17927;52.350;13.402;2023-02-19T15:15:38;3.90;;;0.82;;
31298;SDS011;17927;52.350;13.402;2023-02-19T15:18:07;1.52;;;0.60;;
31298;SDS011;17927;52.350;13.402;2023-02-19T15:20:42;3.40;;;0.63;;
31298;SDS011;17927;52.350;13.402;2023-02-19T15:23:07;1.33;;;0.60;;
31298;SDS011;17927;52.350;13.402;2023-02-19T15:25:33;2.05;;;0.98;;
31298;SDS011;17927;52.350;13.402;2023-02-19T15:30:49;2.58;;;0.57;;
31298;SDS011;17927;52.350;13.402;2023-02-19T15:33:20;3.90;;;0.75;;
31298;SDS011;17927;52.350;13.402;2023-02-19T15:35:49;2.15;;;0.68;;
31298;SDS011;17927;52.350;13.402;2023-02-19T15:38:16;1.47;;;0.67;;
31298;SDS011;17927;52.350;13.402;2023-02-19T15:40:43;1.00;;;0.40;;
31298;SDS011;17927;52.350;13.402;2023-02-19T15:43:55;3.35;;;0.68;;
31298;SDS011;17927;52.350;13.402;2023-02-19T15:46:10;3.63;;;0.47;;
31298;SDS011;17927;52.350;13.402;2023-02-19T15:48:48;4.05;;;0.80;;
31298;SDS011;17927;52.350;13.402;2023-02-19T15:51:22;3.47;;;1.00;;
31298;SDS011;17927;52.350;13.402;2023-02-19T15:53:55;1.83;;;0.57;;
31298;SDS011;17927;52.350;13.402;2023-02-19T15:56:28;1.55;;;0.55;;
31298;SDS011;17927;52.350;13.402;2023-02-19T15:58:58;2.65;;;0.77;;
31298;SDS011;17927;52.350;13.402;2023-02-19T16:01:35;2.13;;;0.90;;
31298;SDS011;17927;52.350;13.402;2023-02-19T16:06:28;3.40;;;1.25;;
31298;SDS011;17927;52.350;13.402;2023-02-19T16:11:33;1.05;;;0.47;;
31298;SDS011;17927;52.350;13.402;2023-02-19T16:14:23;2.60;;;0.63;;
31298;SDS011;17927;52.350;13.402;2023-02-19T16:16:57;1.40;;;0.68;;
31298;SDS011;17927;52.350;13.402;2023-02-19T16:19:33;3.08;;;0.70;;
31298;SDS011;17927;52.350;13.402;2023-02-19T16:22:13;2.67;;;0.70;;
31298;SDS011;17927;52.350;13.402;2023-02-19T16:24:43;4.13;;;1.00;;
31298;SDS011;17927;52.350;13.402;2023-02-19T16:27:11;4.80;;;1.75;;
31298;SDS011;17927;52.350;13.402;2023-02-19T16:29:37;1.63;;;0.88;;
31298;SDS011;17927;52.350;13.402;2023-02-19T16:32:06;3.78;;;1.02;;
31298;SDS011;17927;52.350;13.402;2023-02-19T16:34:43;2.65;;;0.85;;
31298;SDS011;17927;52.350;13.402;2023-02-19T16:42:37;4.30;;;1.00;;
31298;SDS011;17927;52.350;13.402;2023-02-19T16:45:41;2.40;;;0.95;;
31298;SDS011;17927;52.350;13.402;2023-02-19T16:48:08;4.68;;;0.68;;
31298;SDS011;17927;52.350;13.402;2023-02-19T16:50:34;4.20;;;0.90;;
31298;SDS011;17927;52.350;13.402;2023-02-19T16:53:00;7.18;;;0.73;;
31298;SDS011;17927;52.350;13.402;2023-02-19T16:55:28;4.43;;;0.90;;
31298;SDS011;17927;52.350;13.402;2023-02-19T16:57:56;2.65;;;1.10;;
31298;SDS011;17927;52.350;13.402;2023-02-19T17:00:22;2.75;;;0.90;;
31298;SDS011;17927;52.350;13.402;2023-02-19T17:02:50;3.17;;;1.27;;